Time;durP1;ratioP1;P1;durP2;ratioP2;P2;SDS_P1;SDS_P2;PMS_P1;PMS_P2;Temp;Humidity;BMP_temperature;BMP_pressure;BME280_temperature;BME280_humidity;BME280_pressure;Samples;Min_cycle;Max_cycle;Signal;HPM_P1;HPM_P2
2021/07/16 00:00:58;;;;;;;12.93;6.95;;;25.40;50.40;;;;;;5091766;28;20467;-58
2021/07/16 00:03:24;;;;;;;152.43;97.88;;;25.40;50.50;;;;;;5093433;28;20021;-55
2021/07/16 00:05:50;;;;;;;14.75;9.93;;;25.30;50.60;;;;;;5092388;28;20028;-64
2021/07/16 00:08:15;;;;;;;157.88;106.25;;;25.30;50.40;;;;;;5091978;28;20440;-58
2021/07/16 00:10:43;;;;;;;12.77;6.55;;;25.30;50.70;;;;;;5091123;28;20066;-57
2021/07/16 00:13:09;;;;;;;6.13;2.88;;;25.30;50.60;;;;;;5092287;28;20020;-56
2021/07/16 00:15:35;;;;;;;19.27;12.25;;;25.30;50.60;;;;;;5092416;28;20060;-57
2021/07/16 00:18:01;;;;;;;4.07;1.83;;;25.30;50.60;;;;;;5091148;28;20059;-61
2021/07/16 00:20:27;;;;;;;4.03;2.50;;;25.30;50.40;;;;;;5092326;28;20024;-55
2021/07/16 00:22:53;;;;;;;5.03;1.80;;;25.30;50.40;;;;;;5091631;28;20032;-63
2021/07/16 00:25:19;;;;;;;3.00;1.77;;;25.30;51.00;;;;;;5092264;28;20040;-58
2021/07/16 00:27:45;;;;;;;48.40;39.47;;;25.30;50.60;;;;;;5091751;28;20043;-58
2021/07/16 00:30:11;;;;;;;5.97;4.72;;;25.20;50.70;;;;;;5091377;28;20028;-57
2021/07/16 00:32:37;;;;;;;10.20;7.22;;;25.20;50.80;;;;;;5073877;28;20024;-55
2021/07/16 00:35:04;;;;;;;20.02;14.52;;;25.20;50.90;;;;;;5090529;28;20028;-58
2021/07/16 00:37:30;;;;;;;26.20;18.67;;;25.20;50.90;;;;;;5090887;28;20046;-56
2021/07/16 00:39:56;;;;;;;112.93;85.38;;;25.10;51.00;;;;;;5090977;28;20028;-63
2021/07/16 00:42:22;;;;;;;54.33;39.75;;;25.20;51.20;;;;;;5072903;28;20189;-56
2021/07/16 00:44:48;;;;;;;33.45;22.70;;;25.20;51.10;;;;;;5091835;28;20518;-58
2021/07/16 00:47:13;;;;;;;52.95;39.47;;;25.20;51.10;;;;;;5091225;28;20170;-52
2021/07/16 00:49:39;;;;;;;5.30;2.35;;;25.10;51.10;;;;;;5091492;28;20024;-60
2021/07/16 00:52:05;;;;;;;50.90;39.25;;;25.10;50.90;;;;;;5090358;28;20078;-57
2021/07/16 00:54:31;;;;;;;19.45;9.43;;;25.10;51.40;;;;;;5090299;28;20024;-55
2021/07/16 00:56:58;;;;;;;10.27;6.43;;;25.00;51.00;;;;;;5070852;28;20131;-64
2021/07/16 00:59:25;;;;;;;8.90;6.80;;;25.00;51.30;;;;;;5090204;28;20016;-57
2021/07/16 01:01:53;;;;;;;4.57;2.65;;;25.00;51.60;;;;;;5072676;28;20032;-57
2021/07/16 01:04:20;;;;;;;10.88;8.43;;;24.90;51.70;;;;;;5089368;28;20103;-62
2021/07/16 01:06:45;;;;;;;61.13;49.70;;;24.90;51.80;;;;;;5089766;28;20032;-56
2021/07/16 01:09:11;;;;;;;62.00;43.28;;;24.80;52.10;;;;;;5089481;28;20070;-57
2021/07/16 01:11:37;;;;;;;20.65;17.33;;;24.80;52.20;;;;;;5090140;28;20031;-60
2021/07/16 01:14:03;;;;;;;12.63;10.23;;;24.80;52.20;;;;;;5090434;28;20095;-58
2021/07/16 01:16:30;;;;;;;9.45;5.05;;;24.70;52.30;;;;;;5090261;28;20048;-57
2021/07/16 01:18:55;;;;;;;14.52;11.80;;;24.60;52.40;;;;;;5071407;28;20462;-61
2021/07/16 01:21:26;;;;;;;12.07;9.65;;;24.60;52.80;;;;;;5089227;28;20024;-55
2021/07/16 01:23:52;;;;;;;62.78;55.97;;;24.60;53.10;;;;;;5089987;28;20044;-56
2021/07/16 01:26:18;;;;;;;58.47;48.85;;;24.50;53.30;;;;;;5087257;28;20292;-54
2021/07/16 01:28:45;;;;;;;23.83;19.80;;;24.50;53.60;;;;;;5072559;28;20036;-55
2021/07/16 01:31:10;;;;;;;10.20;7.30;;;24.50;53.80;;;;;;5089488;28;20027;-53
2021/07/16 01:33:36;;;;;;;63.60;53.58;;;24.50;53.90;;;;;;5090720;28;20356;-57
2021/07/16 01:36:02;;;;;;;21.90;16.65;;;24.40;53.90;;;;;;5089154;28;20028;-56
2021/07/16 01:38:28;;;;;;;43.17;33.33;;;24.50;53.80;;;;;;5090302;28;20024;-56
2021/07/16 01:40:54;;;;;;;20.25;5.22;;;24.40;53.90;;;;;;5071818;28;20435;-61
2021/07/16 01:43:22;;;;;;;37.05;25.00;;;24.40;53.80;;;;;;5088274;28;20478;-60
2021/07/16 01:45:47;;;;;;;43.00;34.30;;;24.50;54.10;;;;;;5071900;28;20119;-54
2021/07/16 01:48:15;;;;;;;16.65;8.32;;;24.40;54.10;;;;;;5089129;28;20127;-57
2021/07/16 01:50:44;;;;;;;7.63;3.20;;;24.40;54.00;;;;;;5093901;28;20110;-58
2021/07/16 01:53:11;;;;;;;5.43;3.63;;;24.40;54.10;;;;;;5074687;28;20027;-56
2021/07/16 01:55:38;;;;;;;5.60;2.80;;;24.40;54.30;;;;;;5093667;28;20081;-60
2021/07/16 01:58:07;;;;;;;6.50;2.47;;;24.40;54.40;;;;;;5092830;28;20035;-58
2021/07/16 02:00:35;;;;;;;6.88;2.28;;;24.30;54.50;;;;;;5075746;28;20021;-59
2021/07/16 02:03:03;;;;;;;3.00;2.00;;;24.30;54.60;;;;;;5076409;28;20463;-58
2021/07/16 02:05:30;;;;;;;2.50;1.60;;;24.30;54.60;;;;;;5076995;28;20119;-56
2021/07/16 02:08:03;;;;;;;3.67;2.00;;;24.30;54.50;;;;;;5077161;28;20509;-55
2021/07/16 02:10:29;;;;;;;1.98;1.40;;;24.20;54.60;;;;;;5077123;28;20390;-55
2021/07/16 02:12:57;;;;;;;3.22;1.70;;;24.20;54.60;;;;;;5094867;28;20039;-54
2021/07/16 02:15:30;;;;;;;11.15;5.60;;;24.20;54.70;;;;;;5076533;28;20027;-59
2021/07/16 02:17:56;;;;;;;12.77;7.22;;;24.20;54.70;;;;;;5095218;28;20107;-57
2021/07/16 02:20:22;;;;;;;18.55;10.00;;;24.10;54.70;;;;;;5075561;28;20032;-58
2021/07/16 02:22:49;;;;;;;4.15;2.92;;;24.10;54.90;;;;;;5093967;28;20467;-59
2021/07/16 02:25:15;;;;;;;2.78;1.70;;;24.10;54.90;;;;;;5075208;28;20048;-55
2021/07/16 02:27:46;;;;;;;8.20;3.20;;;24.10;54.90;;;;;;5094118;28;20027;-53
2021/07/16 02:30:13;;;;;;;27.23;17.85;;;24.10;55.00;;;;;;5092465;28;20031;-60
2021/07/16 02:32:40;;;;;;;18.88;10.15;;;24.00;55.10;;;;;;5089875;28;20107;-57
2021/07/16 02:35:07;;;;;;;17.35;9.57;;;24.00;55.10;;;;;;5090449;28;20091;-58
2021/07/16 02:37:34;;;;;;;36.13;19.70;;;24.00;55.00;;;;;;5075367;28;20024;-62
2021/07/16 02:40:03;;;;;;;37.38;22.90;;;24.00;55.10;;;;;;5091296;28;20028;-64
2021/07/16 02:42:28;;;;;;;33.17;20.27;;;24.00;55.30;;;;;;5091267;28;20062;-61
2021/07/16 02:45:13;;;;;;;4.50;2.47;;;24.00;55.40;;;;;;5091693;28;20397;-57
2021/07/16 02:47:39;;;;;;;31.88;19.70;;;24.00;55.40;;;;;;5091915;28;20108;-60
2021/07/16 02:50:27;;;;;;;3.53;2.13;;;23.90;55.50;;;;;;5093728;28;20070;-57
2021/07/16 02:52:54;;;;;;;25.00;16.20;;;23.90;55.60;;;;;;5094743;28;20016;-60
2021/07/16 02:55:21;;;;;;;28.75;19.48;;;23.70;55.90;;;;;;5073880;28;20096;-59
2021/07/16 02:57:48;;;;;;;12.68;7.93;;;23.80;56.30;;;;;;5073766;28;20024;-59
2021/07/16 03:00:18;;;;;;;8.10;4.45;;;23.70;56.30;;;;;;5090990;28;20028;-53
2021/07/16 03:02:46;;;;;;;3.25;1.80;;;23.70;56.30;;;;;;5094221;28;20024;-63
2021/07/16 03:05:15;;;;;;;21.48;12.07;;;23.60;56.30;;;;;;5092156;28;20032;-57
2021/07/16 03:07:41;;;;;;;18.38;11.30;;;23.60;56.40;;;;;;5073904;28;20028;-58
2021/07/16 03:10:09;;;;;;;5.78;3.92;;;23.60;56.60;;;;;;5091592;28;20027;-59
2021/07/16 03:12:39;;;;;;;11.35;5.45;;;23.60;56.60;;;;;;5091737;28;20024;-55
2021/07/16 03:15:11;;;;;;;5.78;2.30;;;23.60;56.80;;;;;;5093924;28;20064;-55
2021/07/16 03:17:38;;;;;;;9.07;4.95;;;23.50;56.80;;;;;;5090832;28;20020;-58
2021/07/16 03:20:08;;;;;;;8.20;3.20;;;23.60;57.00;;;;;;5090730;28;20024;-65
2021/07/16 03:22:34;;;;;;;6.68;4.30;;;23.60;57.00;;;;;;5090592;28;20020;-57
2021/07/16 03:25:00;;;;;;;7.22;4.38;;;23.60;57.00;;;;;;5072645;28;20051;-64
2021/07/16 03:27:26;;;;;;;4.63;3.00;;;23.60;57.10;;;;;;5075154;28;20390;-55
2021/07/16 03:29:51;;;;;;;4.03;2.55;;;23.50;57.10;;;;;;5092011;28;20028;-59
2021/07/16 03:32:17;;;;;;;5.20;3.83;;;23.50;57.10;;;;;;5091366;28;20052;-54
2021/07/16 03:34:43;;;;;;;28.98;21.60;;;23.60;57.30;;;;;;5072936;28;20046;-58
2021/07/16 03:37:09;;;;;;;5.35;2.53;;;23.60;57.30;;;;;;5091383;28;20516;-66
2021/07/16 03:39:34;;;;;;;62.22;49.55;;;23.60;57.30;;;;;;5089831;28;20020;-56
2021/07/16 03:42:00;;;;;;;21.10;15.13;;;23.50;57.70;;;;;;5090017;28;20028;-59
2021/07/16 03:44:26;;;;;;;10.93;6.60;;;23.60;57.80;;;;;;5089758;28;20028;-57
2021/07/16 03:46:51;;;;;;;12.63;8.45;;;23.60;57.60;;;;;;5073106;28;20031;-63
2021/07/16 03:49:17;;;;;;;7.10;4.82;;;23.60;57.60;;;;;;5092598;28;20420;-55
2021/07/16 03:51:43;;;;;;;10.07;5.75;;;23.60;57.70;;;;;;5090862;28;20047;-60
2021/07/16 03:54:09;;;;;;;20.58;10.93;;;23.60;57.70;;;;;;5090420;28;20202;-56
2021/07/16 03:56:34;;;;;;;15.02;9.23;;;23.70;57.80;;;;;;5091230;28;20020;-57
2021/07/16 03:59:00;;;;;;;16.85;10.50;;;23.70;57.70;;;;;;5092473;28;20394;-55
2021/07/16 04:01:26;;;;;;;9.80;5.53;;;23.70;57.90;;;;;;5090468;28;20394;-56
2021/07/16 04:03:51;;;;;;;7.07;5.57;;;23.70;57.80;;;;;;5073573;28;20067;-59
2021/07/16 04:06:19;;;;;;;10.75;6.38;;;23.70;57.70;;;;;;5090223;28;20107;-57
2021/07/16 04:08:44;;;;;;;7.57;4.68;;;23.70;57.90;;;;;;5091197;28;20036;-64
2021/07/16 04:11:10;;;;;;;10.40;5.50;;;23.70;57.90;;;;;;5090817;28;20024;-61
2021/07/16 04:13:36;;;;;;;7.85;3.92;;;23.70;57.90;;;;;;5087727;28;20032;-58
2021/07/16 04:16:01;;;;;;;6.40;4.07;;;23.80;57.90;;;;;;5071042;28;20024;-57
2021/07/16 04:18:27;;;;;;;6.65;3.95;;;23.80;57.80;;;;;;5088808;28;20032;-55
2021/07/16 04:20:53;;;;;;;8.30;4.65;;;23.80;57.80;;;;;;5074145;28;20024;-57
2021/07/16 04:23:19;;;;;;;8.85;5.00;;;23.90;57.70;;;;;;5071122;28;20028;-55
2021/07/16 04:25:45;;;;;;;7.95;5.03;;;23.90;57.60;;;;;;5090015;28;20039;-56
2021/07/16 04:28:11;;;;;;;5.88;4.32;;;23.90;57.60;;;;;;5071217;28;20032;-55
2021/07/16 04:30:36;;;;;;;8.45;5.25;;;23.90;57.60;;;;;;5055996;28;20305;-61
2021/07/16 04:33:04;;;;;;;8.20;4.55;;;23.90;57.40;;;;;;5089864;28;20028;-58
2021/07/16 04:35:30;;;;;;;8.35;4.75;;;24.00;57.30;;;;;;5088832;28;20024;-63
2021/07/16 04:37:56;;;;;;;5.50;3.55;;;24.00;57.20;;;;;;5073616;28;20500;-56
2021/07/16 04:40:24;;;;;;;5.90;2.83;;;23.90;57.20;;;;;;5090485;28;20478;-55
2021/07/16 04:42:52;;;;;;;7.43;3.15;;;24.00;57.20;;;;;;5090916;28;20024;-60
2021/07/16 04:45:18;;;;;;;11.55;7.65;;;24.10;57.10;;;;;;5071953;28;20056;-60
2021/07/16 04:47:44;;;;;;;18.05;10.70;;;24.20;56.90;;;;;;5090025;28;20046;-56
2021/07/16 04:50:13;;;;;;;20.80;12.23;;;24.20;57.00;;;;;;5072867;28;20382;-57
2021/07/16 04:52:41;;;;;;;19.67;10.85;;;24.20;56.80;;;;;;5072960;28;20034;-56
2021/07/16 04:55:07;;;;;;;12.05;7.05;;;24.20;56.70;;;;;;5091280;28;20051;-63
2021/07/16 04:57:33;;;;;;;18.85;10.55;;;24.20;56.70;;;;;;5089899;28;20501;-59
2021/07/16 04:59:59;;;;;;;12.00;6.90;;;24.30;56.60;;;;;;5090040;28;20051;-56
2021/07/16 05:02:25;;;;;;;10.85;6.60;;;24.40;56.40;;;;;;5090582;28;20024;-54
2021/07/16 05:04:51;;;;;;;14.60;8.20;;;24.40;56.90;;;;;;5072105;28;20024;-54
2021/07/16 05:07:17;;;;;;;16.73;11.82;;;24.60;56.00;;;;;;5090118;28;20027;-58
2021/07/16 05:12:27;;;;;;;;;;;24.50;55.80;;;;;;5090661;28;20676;-57
2021/07/16 05:14:54;;;;;;;13.32;8.20;;;24.60;55.80;;;;;;5072710;28;19994;-56
2021/07/16 05:17:19;;;;;;;6.47;4.75;;;24.60;55.70;;;;;;5090577;28;20093;-57
2021/07/16 05:19:45;;;;;;;7.47;3.70;;;24.70;55.60;;;;;;5090497;28;20075;-56
2021/07/16 05:22:12;;;;;;;4.18;2.55;;;24.70;55.60;;;;;;5072137;28;20028;-52
2021/07/16 05:24:38;;;;;;;5.28;2.92;;;24.70;55.90;;;;;;5089931;28;20097;-55
2021/07/16 05:27:05;;;;;;;8.40;2.10;;;24.60;55.80;;;;;;5091106;28;20027;-58
2021/07/16 05:29:49;;;;;;;7.15;3.13;;;24.80;55.60;;;;;;5091131;28;20467;-58
2021/07/16 05:32:15;;;;;;;5.07;2.42;;;24.80;55.50;;;;;;5073711;28;20115;-56
2021/07/16 05:34:41;;;;;;;3.42;1.83;;;24.80;55.20;;;;;;5074056;28;20482;-56
2021/07/16 05:37:07;;;;;;;7.15;2.42;;;24.90;55.40;;;;;;5091511;28;20028;-65
2021/07/16 05:39:33;;;;;;;11.00;2.75;;;25.00;55.70;;;;;;5074121;28;20161;-56
2021/07/16 05:41:59;;;;;;;6.80;2.15;;;25.00;54.90;;;;;;5092473;28;20020;-56
2021/07/16 05:44:24;;;;;;;4.15;2.40;;;25.10;54.80;;;;;;5091755;28;20016;-57
2021/07/16 05:46:50;;;;;;;6.35;2.25;;;25.00;54.70;;;;;;5091985;28;20421;-56
2021/07/16 05:49:16;;;;;;;4.60;2.10;;;25.10;54.70;;;;;;5091447;28;20072;-56
2021/07/16 05:51:41;;;;;;;5.75;2.22;;;25.10;54.70;;;;;;5092349;28;20060;-55
2021/07/16 05:54:08;;;;;;;5.82;2.60;;;25.20;54.50;;;;;;5073939;28;20052;-64
2021/07/16 05:56:39;;;;;;;5.47;1.83;;;25.30;54.50;;;;;;5091843;28;20020;-57
2021/07/16 05:59:05;;;;;;;8.18;2.42;;;25.20;54.50;;;;;;5074189;28;20040;-54
2021/07/16 06:01:31;;;;;;;6.03;2.30;;;25.40;54.30;;;;;;5072868;28;20498;-59
2021/07/16 06:03:56;;;;;;;4.68;2.40;;;25.40;53.80;;;;;;5091949;28;20032;-57
2021/07/16 06:06:22;;;;;;;4.03;1.90;;;25.40;53.80;;;;;;5091344;28;20390;-57
2021/07/16 06:08:48;;;;;;;6.03;2.40;;;25.50;53.80;;;;;;5073504;28;20066;-56
2021/07/16 06:11:13;;;;;;;6.80;2.30;;;25.60;53.50;;;;;;5091595;28;20520;-57
2021/07/16 06:13:39;;;;;;;4.18;2.30;;;25.70;53.10;;;;;;5091754;28;20024;-55
2021/07/16 06:16:05;;;;;;;6.05;2.25;;;25.70;52.90;;;;;;5091941;28;20390;-54
2021/07/16 06:18:32;;;;;;;4.90;2.20;;;25.80;52.80;;;;;;5073031;28;20053;-58
2021/07/16 06:20:57;;;;;;;3.45;2.05;;;25.90;52.70;;;;;;5091600;28;20039;-58
2021/07/16 06:23:23;;;;;;;4.82;2.00;;;26.10;52.40;;;;;;5090637;28;20443;-53
2021/07/16 06:25:49;;;;;;;4.63;2.10;;;26.20;52.10;;;;;;5091718;28;20402;-56
2021/07/16 06:28:15;;;;;;;6.63;2.35;;;26.10;51.90;;;;;;5072984;28;20111;-54
2021/07/16 06:30:41;;;;;;;7.38;2.28;;;26.10;52.10;;;;;;5091635;28;20543;-55
2021/07/16 06:33:07;;;;;;;5.20;2.30;;;26.00;52.20;;;;;;5091463;28;20027;-56
2021/07/16 06:35:32;;;;;;;6.22;2.28;;;26.10;52.40;;;;;;5073865;28;20047;-57
2021/07/16 06:37:58;;;;;;;4.75;2.10;;;26.10;52.30;;;;;;5094934;28;20493;-57
2021/07/16 06:40:24;;;;;;;10.18;2.40;;;26.20;52.30;;;;;;5076712;28;20033;-57
2021/07/16 06:42:49;;;;;;;4.43;1.95;;;26.40;52.10;;;;;;5095455;28;20406;-56
2021/07/16 06:45:15;;;;;;;4.70;2.20;;;26.50;51.70;;;;;;5094403;28;20036;-55
2021/07/16 06:47:41;;;;;;;5.20;2.00;;;26.50;51.70;;;;;;5076555;28;20032;-55
2021/07/16 06:50:08;;;;;;;6.30;2.25;;;26.60;51.60;;;;;;5077015;28;20031;-56
2021/07/16 06:52:33;;;;;;;5.43;2.50;;;26.60;51.40;;;;;;5094420;28;20032;-56
2021/07/16 06:55:00;;;;;;;4.97;2.58;;;26.90;51.20;;;;;;5095024;28;20073;-57
2021/07/16 06:57:25;;;;;;;7.07;3.40;;;27.20;50.90;;;;;;5076116;28;20059;-57
2021/07/16 06:59:51;;;;;;;8.70;3.35;;;28.80;50.40;;;;;;5076857;28;20059;-57
2021/07/16 07:02:17;;;;;;;5.65;2.80;;;32.80;42.80;;;;;;5094056;28;20387;-60
2021/07/16 07:04:42;;;;;;;5.97;3.10;;;36.50;36.50;;;;;;5094947;28;20039;-58
2021/07/16 07:07:08;;;;;;;5.85;3.70;;;39.00;33.40;;;;;;5094638;28;20024;-57
2021/07/16 07:09:34;;;;;;;6.97;2.95;;;41.90;30.20;;;;;;5075585;28;20032;-56
2021/07/16 07:11:59;;;;;;;4.57;2.22;;;44.10;28.30;;;;;;5094382;28;20125;-56
2021/07/16 07:14:25;;;;;;;6.13;2.58;;;44.80;27.30;;;;;;5075411;28;20351;-62
2021/07/16 07:16:51;;;;;;;6.60;2.80;;;44.00;27.20;;;;;;5094091;28;20025;-59
2021/07/16 07:19:17;;;;;;;6.65;2.90;;;43.00;27.60;;;;;;5093761;28;20032;-59
2021/07/16 07:21:43;;;;;;;5.40;3.72;;;43.00;27.70;;;;;;5076077;28;20032;-58
2021/07/16 07:24:09;;;;;;;7.72;3.05;;;44.30;27.30;;;;;;5094340;28;20074;-59
2021/07/16 07:26:35;;;;;;;8.15;3.67;;;46.30;26.10;;;;;;5093402;28;20024;-58
2021/07/16 07:29:01;;;;;;;6.82;4.05;;;47.90;25.20;;;;;;5094189;28;20036;-57
2021/07/16 07:31:28;;;;;;;12.05;4.38;;;49.00;24.50;;;;;;5093679;28;20110;-58
2021/07/16 07:33:53;;;;;;;5.85;5.22;;;50.30;23.90;;;;;;5076031;28;20075;-58
2021/07/16 07:36:19;;;;;;;9.38;3.85;;;51.40;23.40;;;;;;5075811;28;20482;-59
2021/07/16 07:38:45;;;;;;;6.85;4.70;;;52.00;22.90;;;;;;5093660;28;20157;-59
2021/07/16 07:41:10;;;;;;;5.78;5.25;;;52.80;22.60;;;;;;5093910;28;20466;-60
2021/07/16 07:43:36;;;;;;;7.63;4.63;;;53.60;22.00;;;;;;5092551;28;20031;-59
2021/07/16 07:46:03;;;;;;;8.18;4.03;;;53.50;22.00;;;;;;5075478;28;20028;-60
2021/07/16 07:48:28;;;;;;;4.65;4.10;;;53.40;22.00;;;;;;5092625;28;20055;-60
2021/07/16 07:50:54;;;;;;;6.25;3.67;;;53.10;22.10;;;;;;5094399;28;20375;-58
2021/07/16 07:53:20;;;;;;;3.70;3.33;;;53.40;22.00;;;;;;5074967;28;20032;-59
2021/07/16 07:55:45;;;;;;;4.25;3.28;;;53.80;21.80;;;;;;5093841;28;20031;-58
2021/07/16 07:58:11;;;;;;;4.88;3.58;;;54.10;21.70;;;;;;5093837;28;20055;-58
2021/07/16 08:00:37;;;;;;;5.30;3.33;;;54.50;21.40;;;;;;5093264;28;20024;-59
2021/07/16 08:03:07;;;;;;;4.18;3.30;;;54.10;21.50;;;;;;5094147;28;20035;-58
2021/07/16 08:05:33;;;;;;;5.43;3.03;;;54.40;21.50;;;;;;5075214;28;20019;-59
2021/07/16 08:07:58;;;;;;;5.32;2.92;;;54.90;21.30;;;;;;5075363;28;20130;-59
2021/07/16 08:10:24;;;;;;;4.60;3.03;;;55.10;21.20;;;;;;5093517;28;20024;-61
2021/07/16 08:12:50;;;;;;;3.22;2.60;;;55.50;21.10;;;;;;5093619;28;20066;-60
2021/07/16 08:15:17;;;;;;;3.83;2.67;;;55.60;20.90;;;;;;5074879;28;20085;-58
2021/07/16 08:17:43;;;;;;;5.50;2.75;;;55.30;20.90;;;;;;5092540;28;20056;-59
2021/07/16 08:20:09;;;;;;;3.38;2.63;;;54.70;21.00;;;;;;5075242;28;20126;-59
2021/07/16 08:22:40;;;;;;;3.88;2.40;;;54.70;21.10;;;;;;5092932;28;20063;-58
2021/07/16 08:25:07;;;;;;;7.50;3.10;;;54.50;21.10;;;;;;5093307;28;20056;-59
2021/07/16 08:27:33;;;;;;;4.90;2.75;;;54.70;21.10;;;;;;5074467;28;20028;-58
2021/07/16 08:29:59;;;;;;;8.38;2.95;;;55.20;20.90;;;;;;5092674;28;20486;-60
2021/07/16 08:32:25;;;;;;;3.97;2.47;;;55.80;20.70;;;;;;5074329;28;20046;-58
2021/07/16 08:34:50;;;;;;;5.80;3.00;;;56.00;20.60;;;;;;5074704;28;20028;-59
2021/07/16 08:37:17;;;;;;;4.03;2.90;;;56.50;20.50;;;;;;5092787;28;20059;-59
2021/07/16 08:39:43;;;;;;;5.63;3.40;;;57.30;20.40;;;;;;5074077;28;20024;-59
2021/07/16 08:42:09;;;;;;;7.00;4.72;;;57.90;20.20;;;;;;5093060;28;20027;-59
2021/07/16 08:44:38;;;;;;;6.78;3.42;;;58.30;20.00;;;;;;5074001;28;20425;-61
2021/07/16 08:47:04;;;;;;;4.60;3.30;;;58.90;20.00;;;;;;5092904;28;20034;-59
2021/07/16 08:49:30;;;;;;;5.45;3.58;;;59.40;19.60;;;;;;5092080;28;20125;-61
2021/07/16 08:51:59;;;;;;;3.95;3.45;;;60.00;19.40;;;;;;5074835;28;20024;-60
2021/07/16 08:54:24;;;;;;;8.07;3.55;;;60.20;19.30;;;;;;5092515;28;20016;-60
2021/07/16 08:56:50;;;;;;;6.20;3.53;;;60.00;19.40;;;;;;5074426;28;20028;-62
2021/07/16 08:59:16;;;;;;;5.13;3.63;;;60.00;19.50;;;;;;5073887;28;20111;-59
2021/07/16 09:01:44;;;;;;;3.85;3.45;;;60.20;19.40;;;;;;5092214;28;20107;-58
2021/07/16 09:04:10;;;;;;;4.20;3.38;;;60.30;19.30;;;;;;5074089;28;20028;-59
2021/07/16 09:06:54;;;;;;;5.57;2.97;;;59.70;19.30;;;;;;5091675;28;20115;-59
2021/07/16 09:09:25;;;;;;;3.22;2.92;;;58.60;19.60;;;;;;5073771;28;20351;-62
2021/07/16 09:11:53;;;;;;;3.75;2.70;;;57.50;19.80;;;;;;5091324;28;20031;-59
2021/07/16 09:14:19;;;;;;;7.00;3.00;;;56.80;20.00;;;;;;5073307;28;20024;-59
2021/07/16 09:16:58;;;;;;;4.25;2.60;;;56.50;20.20;;;;;;5072194;28;20501;-60
2021/07/16 09:19:33;;;;;;;4.57;2.88;;;56.10;20.20;;;;;;5090633;28;20494;-61
2021/07/16 09:22:03;;;;;;;3.53;2.20;;;55.30;20.30;;;;;;5073810;28;20077;-56
2021/07/16 09:24:29;;;;;;;5.97;2.25;;;53.40;20.80;;;;;;5090949;28;20048;-61
2021/07/16 09:26:54;;;;;;;6.30;2.15;;;49.70;22.10;;;;;;5091336;28;20020;-59
2021/07/16 09:29:30;;;;;;;4.43;1.92;;;46.10;23.70;;;;;;5072826;28;20039;-59
2021/07/16 09:32:07;;;;;;;10.18;2.22;;;43.20;25.50;;;;;;5090260;28;20115;-59
2021/07/16 09:34:34;;;;;;;23.98;3.38;;;40.70;27.20;;;;;;5071959;28;20031;-60
2021/07/16 09:37:09;;;;;;;8.52;2.60;;;39.00;28.80;;;;;;5072576;28;20021;-56
2021/07/16 09:39:36;;;;;;;7.15;2.38;;;37.50;30.00;;;;;;5072868;28;20024;-56
2021/07/16 09:42:04;;;;;;;8.25;2.60;;;36.20;31.50;;;;;;5090371;28;20028;-57
2021/07/16 09:44:31;;;;;;;4.30;2.60;;;35.30;32.60;;;;;;5090400;28;20499;-53
2021/07/16 09:47:16;;;;;;;4.35;2.60;;;34.70;33.40;;;;;;5090892;28;20060;-56
2021/07/16 09:49:44;;;;;;;5.75;2.53;;;34.10;34.00;;;;;;5072127;28;20079;-59
2021/07/16 09:52:12;;;;;;;13.27;2.90;;;33.60;35.10;;;;;;5091169;28;20507;-58
2021/07/16 09:54:40;;;;;;;6.13;2.25;;;33.00;35.90;;;;;;5073336;28;20035;-57
2021/07/16 09:57:06;;;;;;;4.50;2.42;;;32.60;36.20;;;;;;5073172;28;20030;-58
2021/07/16 09:59:31;;;;;;;21.83;2.70;;;32.20;36.90;;;;;;5091070;28;20385;-57
2021/07/16 10:01:58;;;;;;;6.07;2.50;;;32.20;37.20;;;;;;5091534;28;20020;-56
2021/07/16 10:04:26;;;;;;;7.35;2.40;;;32.10;37.10;;;;;;5091570;28;20016;-60
2021/07/16 10:07:10;;;;;;;10.27;2.97;;;32.10;37.10;;;;;;5073185;28;20450;-55
2021/07/16 10:09:36;;;;;;;7.38;3.15;;;32.00;37.50;;;;;;5090230;28;20040;-56
2021/07/16 10:12:03;;;;;;;11.00;2.85;;;31.90;38.00;;;;;;5076977;28;20374;-58
2021/07/16 10:14:29;;;;;;;7.30;3.03;;;32.00;37.10;;;;;;5094634;28;20022;-56
2021/07/16 10:16:55;;;;;;;6.70;2.30;;;31.90;36.40;;;;;;5094895;28;20020;-58
2021/07/16 10:19:21;;;;;;;5.10;2.83;;;31.90;37.00;;;;;;5095631;28;20026;-54
2021/07/16 10:21:48;;;;;;;4.50;2.30;;;31.80;37.40;;;;;;5076564;28;20081;-59
2021/07/16 10:24:19;;;;;;;7.20;2.38;;;31.70;37.70;;;;;;5076445;28;20130;-59
2021/07/16 10:26:47;;;;;;;4.38;2.60;;;31.60;38.00;;;;;;5060284;28;20366;-60
2021/07/16 10:29:32;;;;;;;4.10;2.10;;;31.70;38.10;;;;;;5094903;28;20054;-56
2021/07/16 10:31:57;;;;;;;9.10;2.60;;;31.70;37.30;;;;;;5076355;28;20028;-57
2021/07/16 10:34:32;;;;;;;5.05;2.90;;;31.80;37.20;;;;;;5076346;28;20110;-58
2021/07/16 10:37:00;;;;;;;6.97;2.75;;;31.90;37.30;;;;;;5094500;28;20019;-61
2021/07/16 10:39:50;;;;;;;14.20;3.15;;;31.90;37.00;;;;;;5094677;28;20027;-67
2021/07/16 10:42:29;;;;;;;9.75;2.45;;;31.90;36.80;;;;;;5094612;28;20115;-58
2021/07/16 10:45:00;;;;;;;8.15;2.42;;;32.00;36.80;;;;;;5075327;28;20366;-61
2021/07/16 10:47:46;;;;;;;9.65;2.42;;;32.10;36.80;;;;;;5075567;28;20077;-56
2021/07/16 10:50:27;;;;;;;6.22;2.40;;;31.90;37.10;;;;;;5094219;28;20054;-57
2021/07/16 10:52:53;;;;;;;5.35;2.40;;;31.80;37.40;;;;;;5094274;28;20034;-57
2021/07/16 10:55:39;;;;;;;13.63;3.45;;;31.70;37.70;;;;;;5076250;28;20024;-57
2021/07/16 10:58:27;;;;;;;3.25;2.30;;;31.60;37.50;;;;;;5076382;28;20062;-55
2021/07/16 11:00:56;;;;;;;6.22;2.88;;;31.70;37.60;;;;;;5075651;28;20024;-57
2021/07/16 11:03:36;;;;;;;3.60;1.95;;;31.80;37.40;;;;;;5094668;28;20119;-57
2021/07/16 11:06:02;;;;;;;9.68;2.47;;;31.90;36.40;;;;;;5094876;28;20024;-57
2021/07/16 11:08:28;;;;;;;5.30;2.15;;;32.00;36.90;;;;;;5075908;28;20425;-67
2021/07/16 11:11:02;;;;;;;4.38;2.10;;;32.00;36.80;;;;;;5094268;28;20034;-57
2021/07/16 11:13:34;;;;;;;5.38;2.25;;;32.00;36.60;;;;;;5094382;28;20054;-66
2021/07/16 11:16:29;;;;;;;6.85;2.30;;;32.20;36.50;;;;;;5076308;28;20324;-53
2021/07/16 11:19:02;;;;;;;4.50;2.10;;;32.20;36.00;;;;;;5094513;28;20115;-55
2021/07/16 11:21:43;;;;;;;3.60;1.85;;;32.30;36.00;;;;;;5092482;28;20031;-61
2021/07/16 11:27:01;;;;;;;5.90;2.30;;;32.60;35.80;;;;;;5071014;28;20336;-52
2021/07/16 11:29:40;;;;;;;8.45;2.38;;;32.80;35.20;;;;;;5071947;28;20132;-55
2021/07/16 11:32:27;;;;;;;7.07;3.22;;;33.20;35.10;;;;;;5071587;28;20041;-55
2021/07/16 11:34:56;;;;;;;4.97;2.20;;;33.60;34.60;;;;;;5069773;28;20056;-56
2021/07/16 11:37:26;;;;;;;7.32;2.47;;;33.50;34.30;;;;;;5073010;28;20056;-55
2021/07/16 11:40:02;;;;;;;5.65;1.75;;;33.20;34.40;;;;;;5072195;28;20051;-54
2021/07/16 11:42:29;;;;;;;3.70;1.70;;;32.90;34.10;;;;;;5071160;28;20021;-55
2021/07/16 11:44:55;;;;;;;36.25;3.45;;;32.80;34.30;;;;;;5071478;28;20128;-57
2021/07/16 11:47:26;;;;;;;4.70;2.10;;;32.70;33.80;;;;;;5071467;28;20510;-54
2021/07/16 11:49:59;;;;;;;4.03;1.83;;;32.70;34.20;;;;;;5071007;28;20031;-51
2021/07/16 11:52:26;;;;;;;12.63;7.85;;;32.60;34.10;;;;;;5071742;28;20016;-59
2021/07/16 11:54:54;;;;;;;6.57;2.15;;;32.50;33.70;;;;;;5070012;28;20116;-57
2021/07/16 11:57:20;;;;;;;5.57;2.65;;;32.50;34.20;;;;;;5072648;28;20374;-59
2021/07/16 11:59:52;;;;;;;5.47;2.08;;;32.60;34.20;;;;;;5072798;28;20020;-55
2021/07/16 12:02:22;;;;;;;6.18;2.22;;;32.80;33.80;;;;;;5071804;28;20112;-56
2021/07/16 12:04:51;;;;;;;4.18;1.48;;;32.90;34.00;;;;;;5072329;28;20459;-56
2021/07/16 12:07:18;;;;;;;1.70;1.42;;;32.90;33.40;;;;;;5071495;28;20028;-53
2021/07/16 12:12:29;;;;;;;21.55;3.00;;;33.00;33.20;;;;;;5072534;28;20033;-56
2021/07/16 12:15:06;;;;;;;18.33;6.75;;;33.10;32.40;;;;;;5071802;28;20360;-55
2021/07/16 12:17:39;;;;;;;11.48;4.20;;;33.00;32.50;;;;;;5072614;28;20439;-69
2021/07/16 12:20:08;;;;;;;5.22;2.17;;;32.80;32.80;;;;;;5071236;28;20020;-55
2021/07/16 12:22:39;;;;;;;2.75;1.50;;;33.00;32.70;;;;;;5072130;28;20023;-56
2021/07/16 12:25:07;;;;;;;4.53;1.83;;;33.10;32.60;;;;;;5072306;28;20040;-55
2021/07/16 12:27:33;;;;;;;5.32;1.75;;;33.20;32.30;;;;;;5072199;28;20044;-65
2021/07/16 12:30:01;;;;;;;5.65;2.00;;;33.30;32.40;;;;;;5072789;28;20051;-54
2021/07/16 12:32:42;;;;;;;5.25;1.60;;;33.50;32.50;;;;;;5070955;28;20021;-56
2021/07/16 12:35:17;;;;;;;12.32;3.25;;;33.50;32.00;;;;;;5071102;28;20024;-59
2021/07/16 12:37:46;;;;;;;19.35;3.10;;;33.70;31.70;;;;;;5071894;28;20018;-58
2021/07/16 12:40:16;;;;;;;38.97;3.75;;;33.80;31.60;;;;;;5072035;28;20055;-55
2021/07/16 12:42:59;;;;;;;5.15;2.05;;;33.70;30.80;;;;;;5069569;28;20047;-53
2021/07/16 12:45:48;;;;;;;6.70;2.00;;;33.50;31.30;;;;;;5071910;28;20435;-56
2021/07/16 12:48:20;;;;;;;16.98;6.40;;;33.40;31.80;;;;;;5071299;28;20467;-56
2021/07/16 12:50:47;;;;;;;6.95;2.50;;;33.40;31.70;;;;;;5069879;28;20036;-55
2021/07/16 12:53:27;;;;;;;18.70;12.18;;;33.30;31.90;;;;;;5072106;28;20025;-57
2021/07/16 12:55:53;;;;;;;9.93;4.82;;;33.00;32.30;;;;;;5071269;28;20425;-56